Aérodrome :
LOGIN :

S'inscrire | Disclaimer

   EN    FR    IT 

 










Légende :    VFR   VFR Marginal   IFR   IFR Intensif   IFR Très Intensif
Visi : 
Plafond : 
>= 8 km
>= 3000ft
5 à 8 km
1000 à 3000 ft
1500m à 5 km
500 à 1000 ft
800 à 1500m
200 à 500 ft
< 800m
< 200 ft
Symboles :   Orages  Brouillard  Fortes neiges  Fortes précipitations  Vent > 20 kt
SIGMETs :   Divers  Orages  Givrage  Turbulence  Onde Orograph.  Cendres Volcan.






- Altitude de l'aérodrome : 404 ft
- Code IATA : WRO


EPWR - Wroclaw

DERNIER METAR :
  • 071000Z 23007KT 180V270 CAVOK 19/M02 Q1030

METARs EXPIRÉS :
  • 070930Z 23009KT 200V270 CAVOK 19/M03 Q1030
  • 070900Z 23008KT 200V290 CAVOK 18/M03 Q1030
  • 070830Z 23009KT 180V270 CAVOK 17/M02 Q1030
  • 070800Z 22007KT 180V250 CAVOK 16/M04 Q1030
  • 070730Z 21004KT 140V280 CAVOK 15/M04 Q1030

TAF TAF EPWR
Valide du 07 à 09h jusqu'au 08 à 09h UTC


070830Z 0709/0809 24010KT CAVOK
BECMG 0716/0719 34005KT
TEMPO 0801/0806 2500 BR
PROB30 0804/0807 BKN006



MET'MAP, la Météo Aéronautique d'un coup d'oeil ! - Copyright ORBIFLY Décembre 2007 - Disclaimer

ORBIFLY MET'MAP TEAM :

Programmation & Développement : Alexandra Zaïnal
Sur une idée originale de : Baudouin d'Aumeries
Assistance à la programmation : Marc-Olivier Méhu
Soutien technique & logistique : Manuel Goepfert

Contact : metmap@orbifly.com




SOURCES & CREDITS :

   NOAA